• Join FlightAware (Why Join?)
  • Login
  • US Flag 
05:42PM EDT


 

Airport Tracker/Info


-or-


 

Live Flight TrackerFlight Track Log ✈ AWE3327 ✈ 01-May-2013 ✈ KDCA - KSRQ

Flight Track Log - Related Links

Times and Time Zones

All times are in EDT time to prevent confusion due to time zone crossing. See the AWE3327 flight status page for this flight to view local times or setup timezone preferences in your user account.

Time Position Orientation Groundspeed Altitude Reporting Facility
EDT Latitude Longitude Course Direction KTS MPH feet Rate Location/Type
09:11AM 38.9225 -77.1097 233° Southwest 203 234 3,400  Level Washington Center
09:12AM 38.6301 -77.2865 218° Southwest  Level FlightAware Approximate
09:12AM 38.9781 -77.1750 318° Northwest 238 274 6,500  Level Washington Center
09:13AM 38.5503 -77.3664 218° Southwest  Level FlightAware Approximate
09:13AM 39.0144 -77.2558 300° West 266 306 9,600  Level Washington Center
09:14AM 38.4770 -77.4559 225° Southwest  Level FlightAware Approximate
09:14AM 38.9406 -77.3183 213° Southwest 210 242 11,800  Level Washington Center
09:15AM 38.4019 -77.5407 201° Southwest  Level FlightAware Approximate
09:15AM 38.8503 -77.3589 199° South 266 306 14,600  Level Washington Center
09:16AM 38.3338 -77.6325 233° Southwest  Level FlightAware Approximate
09:16AM 38.7558 -77.3992 198° South 324 373 16,800  Level Washington Center
09:17AM 38.6594 -77.4472 201° Southwest 354 407 18,500 1,920 Climbing Washington Center
09:18AM 38.5564 -77.4925 199° South 378 435 20,700 2,040 Climbing Washington Center
09:19AM 38.4533 -77.5456 202° Southwest 391 450 22,700 1,860 Climbing Washington Center
09:20AM 38.3647 -77.6228 214° Southwest 383 441 24,500 1,620 Climbing Washington Center
09:21AM 38.2917 -77.7344 230° Southwest 398 458 26,000 720 Climbing Washington Center
09:22AM 38.2189 -77.8461 230° Southwest 406 467 26,000  Level Washington Center
09:23AM 38.1436 -77.9575 229° Southwest 412 474 26,000  Level Washington Center
09:24AM 38.0706 -78.0711 231° Southwest 418 481 26,000  Level Washington Center
09:25AM 37.9911 -78.1711 225° Southwest 412 474 26,000  Level Washington Center
09:26AM 37.9122 -78.2556 220° Southwest 405 466 26,000  Level Washington Center
09:27AM 37.8206 -78.3442 217° Southwest 412 474 26,000  Level Washington Center
09:28AM 37.7247 -78.4325 216° Southwest 425 489 26,000  Level Washington Center
09:29AM 37.6328 -78.5183 216° Southwest 425 489 26,000  Level Washington Center
09:30AM 37.5303 -78.6139 216° Southwest 425 489 26,000  Level Washington Center
09:31AM 37.4383 -78.7019 217° Southwest 425 489 26,000  Level Washington Center
09:32AM 37.3444 -78.7894 217° Southwest 425 489 26,000  Level Washington Center
09:33AM 37.2525 -78.8717 215° Southwest 425 489 26,000  Level Washington Center
09:34AM 37.1603 -78.9589 217° Southwest 425 489 26,000  Level Washington Center
09:35AM 37.0767 -79.0361 216° Southwest 425 489 26,000  Level Washington Center
09:36AM 36.9844 -79.1203 216° Southwest 425 489 26,000  Level Washington Center
09:37AM 36.8922 -79.2069 217° Southwest 425 489 26,000  Level Washington Center
09:38AM 36.8019 -79.2908 217° Southwest 419 482 26,000  Level Washington Center
09:39AM 36.7075 -79.3772 216° Southwest 419 482 26,000  Level Washington Center
09:40AM 36.6067 -79.4681 216° Southwest 414 476 26,000  Level Washington Center
09:41AM 36.5183 -79.5514 217° Southwest 414 476 26,000  Level Washington Center
09:43AM 36.3589 -79.6922 215° Southwest 422 486 26,000  Level Atlanta Center
09:44AM 36.2697 -79.7717 216° Southwest 411 473 26,000  Level Atlanta Center
09:45AM 36.1769 -79.8564 216° Southwest 411 473 26,000  Level Atlanta Center
09:46AM 36.0856 -79.9356 215° Southwest 416 479 26,000 120 Level Atlanta Center
09:47AM 35.9775 -80.0078 208° Southwest 410 472 26,300 900 Climbing Atlanta Center
09:48AM 35.8708 -80.0617 202° Southwest 410 472 27,800 1,320 Climbing Atlanta Center
09:49AM 35.7681 -80.1128 202° Southwest 415 478 29,000 1,080 Climbing Atlanta Center
09:50AM 35.6572 -80.1717 203° Southwest 415 478 30,000 480 Climbing Atlanta Center
09:51AM 35.5528 -80.2278 204° Southwest 420 483 30,000  Level Atlanta Center
09:52AM 35.4458 -80.2786 201° Southwest 420 483 30,000  Level Atlanta Center
09:53AM 35.3492 -80.3236 201° Southwest 415 478 30,000  Level Atlanta Center
09:54AM 35.2422 -80.3769 202° Southwest 415 478 30,000  Level Atlanta Center
09:55AM 35.1250 -80.4378 203° Southwest 415 478 30,000 1,080 Level Atlanta Center
09:57AM 34.9017 -80.5511 203° Southwest 404 465 33,500 1,200 Climbing Jacksonville Center
09:58AM 34.7981 -80.5969 200° South 393 452 34,000 240 Climbing Jacksonville Center
09:59AM 34.6989 -80.6450 202° Southwest 388 447 34,000  Level Jacksonville Center
10:00AM 34.6122 -80.6928 204° Southwest 387 445 34,000  Level Jacksonville Center
10:01AM 34.5108 -80.7433 202° Southwest 387 445 34,000  Level Jacksonville Center
10:02AM 34.4053 -80.7911 200° South 394 453 34,000  Level Jacksonville Center
10:03AM 34.3039 -80.8414 202° Southwest 394 453 34,000  Level Jacksonville Center
10:04AM 34.2025 -80.8939 203° Southwest 399 459 34,000  Level Jacksonville Center
10:05AM 34.0989 -80.9414 201° Southwest 399 459 34,000  Level Jacksonville Center
10:06AM 33.9953 -80.9914 202° Southwest 399 459 34,000  Level Jacksonville Center
10:07AM 33.8936 -81.0386 201° Southwest 399 459 34,000  Level Jacksonville Center
10:08AM 33.7922 -81.0908 203° Southwest 404 465 34,000  Level Jacksonville Center
10:09AM 33.6906 -81.1403 202° Southwest 399 459 34,000  Level Jacksonville Center
10:10AM 33.5869 -81.1897 202° Southwest 394 453 34,000  Level Jacksonville Center
10:11AM 33.4856 -81.2389 202° Southwest 394 453 34,000  Level Jacksonville Center
10:12AM 33.3817 -81.2881 202° Southwest 394 453 34,000  Level Jacksonville Center
10:13AM 33.2822 -81.3397 203° Southwest 394 453 34,000  Level Jacksonville Center
10:14AM 33.1806 -81.3886 202° Southwest 394 453 34,000  Level Jacksonville Center
10:15AM 33.0789 -81.4375 202° Southwest 394 453 34,000  Level Jacksonville Center
10:16AM 32.9792 -81.4836 201° Southwest 394 453 34,000  Level Jacksonville Center
10:17AM 32.8775 -81.5322 202° Southwest 389 448 34,000  Level Jacksonville Center
10:18AM 32.7778 -81.5856 204° Southwest 389 448 34,000  Level Jacksonville Center
10:19AM 32.6675 -81.6389 202° Southwest 395 455 34,000  Level Jacksonville Center
10:20AM 32.5783 -81.6819 202° Southwest 395 455 34,000  Level Jacksonville Center
10:21AM 32.4681 -81.7353 202° Southwest 395 455 34,000  Level Jacksonville Center
10:22AM 32.3789 -81.7808 203° Southwest 395 455 34,000  Level Jacksonville Center
10:23AM 32.2686 -81.8336 202° Southwest 390 449 34,000  Level Jacksonville Center
10:24AM 32.1622 -81.8619 193° South 390 449 34,000  Level Jacksonville Center
10:25AM 32.0644 -81.8753 187° South 395 455 34,000  Level Jacksonville Center
10:26AM 31.9475 -81.8936 188° South 395 455 34,000  Level Jacksonville Center
10:27AM 31.8494 -81.9117 189° South 390 449 34,000  Level Jacksonville Center
10:28AM 31.7308 -81.9325 188° South 390 449 34,000  Level Jacksonville Center
10:29AM 31.6222 -81.9533 189° South 390 449 34,000  Level Jacksonville Center
10:30AM 31.5242 -81.9664 186° South 390 449 34,000  Level Jacksonville Center
10:31AM 31.4053 -81.9869 188° South 390 449 34,000  Level Jacksonville Center
10:32AM 31.3053 -82.0075 190° South 395 455 34,000  Level Jacksonville Center
10:33AM 31.1969 -82.0231 187° South 395 455 34,000  Level Jacksonville Center
10:34AM 31.0906 -82.0433 189° South 395 455 34,000  Level Jacksonville Center
10:35AM 30.9842 -82.0639 189° South 395 455 34,000  Level Jacksonville Center
10:36AM 30.8756 -82.0794 187° South 389 448 34,000  Level Jacksonville Center
10:37AM 30.7650 -82.0972 188° South 395 455 34,000  Level Jacksonville Center
10:38AM 30.6589 -82.1150 188° South 395 455 34,000  Level Jacksonville Center
10:39AM 30.5397 -82.1303 186° South 390 449 34,000  Level Jacksonville Center
10:40AM 30.4336 -82.1506 189° South 396 456 34,000  Level Jacksonville Center
10:41AM 30.3250 -82.1683 188° South 391 450 34,000  Level Jacksonville Center
10:42AM 30.2186 -82.1833 187° South 390 449 34,000 -600 Level Jacksonville Center
10:43AM 30.1122 -82.2033 189° South 390 449 32,800 -1,260 Descending Jacksonville Center
10:44AM 30.0017 -82.2233 189° South 390 449 31,500 -1,560 Descending Jacksonville Center
10:45AM 29.8911 -82.2433 189° South 395 455 29,700 -1,800 Descending Jacksonville Center
10:46AM 29.7783 -82.2417 179° South 400 460 27,900 -1,800 Descending Jacksonville Center
10:47AM 29.6656 -82.2258 173° South 406 467 26,100 -1,500 Descending Jacksonville Center
10:48AM 29.5611 -82.2169 176° South 395 455 25,000 -600 Descending Jacksonville Center
10:49AM 29.4650 -82.2033 173° South 389 448 25,000 -240 Level Jacksonville Center
10:50AM 29.3586 -82.1919 175° South 389 448 24,600 -1,140 Descending Jacksonville Center
10:51AM 29.2519 -82.1808 175° South 389 448 22,800 -1,800 Descending Jacksonville Center
10:52AM 29.1475 -82.1722 176° South 389 448 21,100 -1,740 Descending Jacksonville Center
10:53AM 29.0472 -82.1586 173° South 384 442 19,400 -1,680 Descending Jacksonville Center
10:54AM 28.9492 -82.1475 174° South 372 428 17,800 -1,680 Descending Jacksonville Center
10:55AM 28.8553 -82.1386 175° South 359 413 16,100 -1,440 Descending Jacksonville Center
10:57AM 28.6333 -82.1167 175° South 322 371 13,000 -1,320 Descending Tampa TRACON
10:58AM 28.5500 -82.1000 170° South 321 369 11,700 -1,320 Descending Tampa TRACON
10:59AM 28.4667 -82.0833 170° South 314 361 10,400 -900 Descending Tampa TRACON
11:00AM 28.3833 -82.0667 170° South 310 357 10,000 -240 Descending Tampa TRACON
11:01AM 28.2833 -82.0667 180° South 310 357 10,000  Level Tampa TRACON
11:02AM 28.2000 -82.0500 170° South 309 356 10,000  Level Tampa TRACON
11:03AM 28.1167 -82.0333 170° South 310 357 10,000  Level Tampa TRACON
11:04AM 28.0167 -82.0167 172° South 310 357 10,000 -780 Level Tampa TRACON
11:05AM 27.9500 -82.0500 204° Southwest 286 329 8,500 -1,740 Descending Tampa TRACON
11:06AM 27.9000 -82.1000 221° Southwest 282 325 6,600 -1,260 Descending Tampa TRACON
11:07AM 27.8333 -82.1667 221° Southwest 275 316 6,000 -300 Descending Tampa TRACON
11:08AM 27.7833 -82.2333 230° Southwest 277 319 6,000  Level Tampa TRACON
11:09AM 27.7333 -82.3000 230° Southwest 276 318 6,000 -420 Level Tampa TRACON
11:10AM 27.6833 -82.3667 230° Southwest 272 313 5,200 -1,080 Descending Tampa TRACON
11:11AM 27.6333 -82.4167 222° Southwest 269 310 3,900 -1,320 Descending Tampa TRACON
11:12AM 27.6000 -82.4833 241° Southwest 262 302 2,700 -1,020 Descending Tampa TRACON
11:13AM 27.5500 -82.5333 222° Southwest 232 267 2,000 -360 Descending Tampa TRACON
11:14AM 27.5167 -82.5833 233° Southwest 197 227 2,000  Level Tampa TRACON